Saint Catherine, Egypt
Current Conditions -  °F | °C
As of 11:00 AM on Sunday 26 Oct 2014 (Local Time) from HESC Reporting Station
Clear Clear  
Wind Chill: 70°   Ceiling: Unl
Heat Index: 70°   Visibility: 6mi
Dew Point: 32°   Wind: 9mph
Humidity: 25%   Direction: 60°ENE
Pressure: 30.21"   Gusts: NA
Location:  28.56°N, 33.98°E
Report Text: HESC 260900Z 06008KT CAVOK 21/M00 Q1023 NOSIG
Loading
Personal Weather Stations






























Interactive Weather Map New forecast layout! Learn more

10-Day Weather Forecast

Advertisements
Track Severe Weather on mobile